• Join FlightAware (Why Join?)
  • Login
  • US Flag 
 
08:41AM EST


 

Airport Tracker/Info


-or-


 

Live Flight TrackerFlight Track Log ✈ AWI4083 ✈ 07-May-2013 ✈ KDCA - KCHS

Flight Track Log - Related Links

Times and Time Zones

All times are in EDT time to prevent confusion due to time zone crossing. See the AWI4083 flight status page for this flight to view local times or setup timezone preferences in your user account.

Time Position Orientation Groundspeed Altitude Reporting Facility
EDT Latitude Longitude Course Direction KTS MPH feet Rate Location/Type
12:27PM 38.8833 -77.0500 303° West 180 207 1,400  Level Potomac TRACON
12:28PM 38.9167 -77.1167 303° West 241 277 3,600 2,100 Climbing Potomac TRACON
12:29PM 38.9833 -77.1667 330° Northwest 296 341 5,600 2,160 Climbing Potomac TRACON
12:30PM 39.0500 -77.1333 21° North 290 334 8,000 2,280 Climbing Potomac TRACON
12:31PM 39.0167 -77.0500 117° Southeast 257 296 10,300 2,220 Climbing Potomac TRACON
12:32PM 38.9667 -77.0167 153° Southeast 260 299 12,500 2,040 Climbing Potomac TRACON
12:33PM 38.9000 -76.9667 150° Southeast 297 342 14,400 1,500 Climbing Potomac TRACON
12:35PM 38.7628 -76.8750 152° Southeast 308 354 17,100 1,500 Climbing Washington Center
12:36PM 38.6903 -76.8206 150° Southeast 302 348 19,000 1,440 Climbing Washington Center
12:37PM 38.6117 -76.7661 152° Southeast 308 354 20,000 780 Climbing Washington Center
12:38PM 38.5203 -76.7247 160° South 327 376 20,600 1,020 Climbing Washington Center
12:39PM 38.4203 -76.7100 173° South 352 405 22,100 1,140 Climbing Washington Center
12:40PM 38.3183 -76.6953 174° South 357 411 23,000 1,020 Climbing Washington Center
12:41PM 38.2058 -76.6778 173° South 364 419 24,200 1,320 Climbing Washington Center
12:42PM 38.1081 -76.6658 175° South 370 426 25,600 1,140 Climbing Washington Center
12:43PM 38.0081 -76.6511 173° South 370 426 26,500 720 Climbing Washington Center
12:44PM 37.9058 -76.6550 182° South 370 426 27,100 660 Climbing Washington Center
12:45PM 37.8033 -76.6667 185° South 370 426 27,900 960 Climbing Washington Center
12:46PM 37.6969 -76.6808 186° South 370 426 29,100 1,020 Climbing Washington Center
12:47PM 37.5989 -76.6900 184° South 365 420 30,000 420 Climbing Washington Center
12:48PM 37.4964 -76.7042 186° South 370 426 30,000  Level Washington Center
12:49PM 37.3897 -76.7342 193° South 380 437 30,000  Level Washington Center
12:50PM 37.2956 -76.7719 198° South 386 444 30,000  Level Washington Center
12:51PM 37.1931 -76.8147 198° South 396 456 30,000  Level Washington Center
12:52PM 37.0944 -76.8572 199° South 391 450 30,000  Level Washington Center
12:53PM 36.9961 -76.8972 198° South 386 444 30,000  Level Washington Center
12:54PM 36.8975 -76.9397 199° South 386 444 30,000  Level Washington Center
12:55PM 36.7969 -76.9769 197° South 386 444 30,000  Level Washington Center
12:56PM 36.7025 -77.0244 202° Southwest 386 444 30,000  Level Washington Center
12:57PM 36.6181 -77.1006 216° Southwest 376 433 30,000  Level Washington Center
12:58PM 36.5336 -77.1817 218° Southwest 381 438 30,000  Level Washington Center
12:59PM 36.4533 -77.2628 219° Southwest 381 438 30,000  Level Washington Center
01:00PM 36.3708 -77.3383 216° Southwest 381 438 30,000  Level Washington Center
01:01PM 36.2733 -77.4264 216° Southwest 381 438 30,000  Level Washington Center
01:02PM 36.1972 -77.5017 219° Southwest 387 445 30,000  Level Washington Center
01:03PM 36.1061 -77.5844 216° Southwest 399 459 30,000  Level Washington Center
01:04PM 36.0150 -77.6694 217° Southwest 409 471 30,000  Level Washington Center
01:05PM 35.9197 -77.7517 215° Southwest 420 483 30,000  Level Washington Center
01:06PM 35.8244 -77.8258 212° Southwest 420 483 30,000  Level Washington Center
01:07PM 35.7247 -77.9050 213° Southwest 425 489 30,000 -420 Level Washington Center
01:08PM 35.6231 -77.9811 211° Southwest 425 489 29,200 -840 Descending Washington Center
01:09PM 35.5214 -78.0622 213° Southwest 425 489 28,400 -600 Descending Washington Center
01:10PM 35.4194 -78.1408 212° Southwest 430 495 28,000 -240 Descending Washington Center
01:11PM 35.3197 -78.2192 213° Southwest 430 495 28,000  Level Washington Center
01:12PM 35.2178 -78.2972 212° Southwest 435 501 28,000  Level Washington Center
01:13PM 35.1181 -78.3725 212° Southwest 435 501 28,000  Level Washington Center
01:17PM 34.7356 -78.6636 212° Southwest 426 490 28,000  Level Jacksonville Center
01:18PM 34.6358 -78.7392 212° Southwest 426 490 28,000  Level Jacksonville Center
01:19PM 34.5361 -78.8172 213° Southwest 426 490 28,000  Level Jacksonville Center
01:20PM 34.4508 -78.8867 214° Southwest 426 490 28,000 -60 Level Jacksonville Center
01:21PM 34.3592 -78.9561 212° Southwest 414 476 27,900 -780 Descending Jacksonville Center
01:22PM 34.2611 -79.0261 211° Southwest 409 471 26,500 -1,500 Descending Jacksonville Center
01:23PM 34.1542 -79.0758 201° Southwest 409 471 25,000 -1,500 Descending Jacksonville Center
01:24PM 34.0431 -79.1233 200° South 415 478 23,500 -1,500 Descending Jacksonville Center
01:25PM 33.9339 -79.1731 201° Southwest 427 491 22,000 -1,500 Descending Jacksonville Center
01:26PM 33.8206 -79.2228 200° South 427 491 20,500 -1,500 Descending Jacksonville Center
01:27PM 33.7181 -79.2869 208° Southwest 427 491 19,000 -1,620 Descending Jacksonville Center
01:28PM 33.6283 -79.3581 213° Southwest 398 458 17,300 -1,500 Descending Jacksonville Center
01:29PM 33.5467 -79.4186 212° Southwest 367 422 16,100 -1,200 Descending Jacksonville Center
01:30PM 33.4689 -79.4789 213° Southwest 352 405 14,900 -1,200 Descending Jacksonville Center
01:31PM 33.3911 -79.5367 212° Southwest 347 399 13,700 -2,280 Descending Jacksonville Center
01:32PM 33.3156 -79.5942 212° Southwest 341 392 10,400 -2,460 Descending Jacksonville Center
01:33PM 33.2519 -79.6414 212° Southwest 314 361 8,800 -1,800 Descending Jacksonville Center
01:34PM 33.1992 -79.6953 221° Southwest 278 320 6,900 -1,860 Descending Jacksonville Center
01:35PM 33.1672 -79.7611 240° Southwest 245 282 5,100 -1,800 Descending Jacksonville Center
01:36PM 33.1356 -79.8292 241° Southwest 245 282 3,300 -1,800 Descending Jacksonville Center
01:37PM 33.0889 -79.8828 224° Southwest 239 275 1,600 -900 Descending Jacksonville Center
01:38PM 33.0439 -79.9264 219° Southwest 224 258 1,500 -60 Descending Jacksonville Center
01:39PM 33.0033 -79.9697 222° Southwest 211 243 1,500  Level Jacksonville Center
01:41PM 32.8986 -80.0405 180° South  Level Estimated
01:48PM 32.8986 -80.0405 348° North  Level Estimated
01:49PM 32.8986 -80.0405 348° North  Level Estimated